sensor_id;sensor_type;location;lat;lon;timestamp;temperature;humidity
76759;DHT22;65701;45.588;5.186;2024-03-23T00:55:32;14.65;67.76
76759;DHT22;65701;45.588;5.186;2024-03-23T00:57:57;14.62;67.64
76759;DHT22;65701;45.588;5.186;2024-03-23T01:00:23;14.58;67.59
76759;DHT22;65701;45.588;5.186;2024-03-23T01:02:48;14.61;67.52
76759;DHT22;65701;45.588;5.186;2024-03-23T01:05:14;14.59;67.43
76759;DHT22;65701;45.588;5.186;2024-03-23T01:07:39;14.58;67.37
76759;DHT22;65701;45.588;5.186;2024-03-23T01:10:05;14.58;67.43
76759;DHT22;65701;45.588;5.186;2024-03-23T01:12:31;14.57;67.48
76759;DHT22;65701;45.588;5.186;2024-03-23T01:14:56;14.55;67.40
76759;DHT22;65701;45.588;5.186;2024-03-23T01:17:22;14.52;67.56
76759;DHT22;65701;45.588;5.186;2024-03-23T01:19:47;14.51;67.71
76759;DHT22;65701;45.588;5.186;2024-03-23T01:22:13;14.48;67.80
76759;DHT22;65701;45.588;5.186;2024-03-23T01:24:38;14.49;67.79
76759;DHT22;65701;45.588;5.186;2024-03-23T01:27:04;14.49;67.62
76759;DHT22;65701;45.588;5.186;2024-03-23T01:29:29;14.49;67.61
76759;DHT22;65701;45.588;5.186;2024-03-23T01:31:55;14.48;67.62
76759;DHT22;65701;45.588;5.186;2024-03-23T01:34:20;14.48;67.62
76759;DHT22;65701;45.588;5.186;2024-03-23T01:36:46;14.49;67.64
76759;DHT22;65701;45.588;5.186;2024-03-23T01:39:13;14.51;67.64
76759;DHT22;65701;45.588;5.186;2024-03-23T01:41:40;14.52;67.63
76759;DHT22;65701;45.588;5.186;2024-03-23T01:44:08;14.54;67.73
76759;DHT22;65701;45.588;5.186;2024-03-23T01:46:35;14.52;67.73
76759;DHT22;65701;45.588;5.186;2024-03-23T01:49:02;14.57;67.67
76759;DHT22;65701;45.588;5.186;2024-03-23T01:51:28;14.57;67.72
76759;DHT22;65701;45.588;5.186;2024-03-23T01:53:54;14.58;67.66
76759;DHT22;65701;45.588;5.186;2024-03-23T01:56:21;14.64;67.53
76759;DHT22;65701;45.588;5.186;2024-03-23T01:58:46;14.64;67.43
76759;DHT22;65701;45.588;5.186;2024-03-23T02:01:12;14.67;67.46
76759;DHT22;65701;45.588;5.186;2024-03-23T02:03:37;14.67;67.41
76759;DHT22;65701;45.588;5.186;2024-03-23T02:06:03;14.68;67.37
76759;DHT22;65701;45.588;5.186;2024-03-23T02:08:30;14.71;67.33
76759;DHT22;65701;45.588;5.186;2024-03-23T02:10:56;14.72;67.27
76759;DHT22;65701;45.588;5.186;2024-03-23T02:13:22;14.76;67.16
76759;DHT22;65701;45.588;5.186;2024-03-23T02:15:47;14.78;67.19
76759;DHT22;65701;45.588;5.186;2024-03-23T02:18:13;14.82;67.16
76759;DHT22;65701;45.588;5.186;2024-03-23T02:20:39;14.80;67.11
76759;DHT22;65701;45.588;5.186;2024-03-23T02:23:05;14.82;67.11
76759;DHT22;65701;45.588;5.186;2024-03-23T02:25:33;14.80;67.04
76759;DHT22;65701;45.588;5.186;2024-03-23T02:27:59;14.83;67.07
76759;DHT22;65701;45.588;5.186;2024-03-23T02:30:26;14.85;67.04
76759;DHT22;65701;45.588;5.186;2024-03-23T02:32:51;14.83;67.03
76759;DHT22;65701;45.588;5.186;2024-03-23T02:35:17;14.86;67.04
76759;DHT22;65701;45.588;5.186;2024-03-23T02:37:43;14.89;67.01
76759;DHT22;65701;45.588;5.186;2024-03-23T02:40:08;14.89;67.01
76759;DHT22;65701;45.588;5.186;2024-03-23T02:42:34;14.87;66.93
76759;DHT22;65701;45.588;5.186;2024-03-23T02:44:59;14.87;66.97
76759;DHT22;65701;45.588;5.186;2024-03-23T02:47:25;14.90;66.95
76759;DHT22;65701;45.588;5.186;2024-03-23T02:49:50;14.89;67.13
76759;DHT22;65701;45.588;5.186;2024-03-23T02:52:16;14.87;67.14
76759;DHT22;65701;45.588;5.186;2024-03-23T02:54:41;14.83;67.27
76759;DHT22;65701;45.588;5.186;2024-03-23T02:57:11;14.85;67.39
76759;DHT22;65701;45.588;5.186;2024-03-23T02:59:36;14.79;67.36
76759;DHT22;65701;45.588;5.186;2024-03-23T03:02:02;14.78;67.50
76759;DHT22;65701;45.588;5.186;2024-03-23T03:04:29;14.83;67.59
76759;DHT22;65701;45.588;5.186;2024-03-23T03:06:55;14.80;67.69
76759;DHT22;65701;45.588;5.186;2024-03-23T03:09:21;14.82;67.73
76759;DHT22;65701;45.588;5.186;2024-03-23T03:11:46;14.85;67.67
76759;DHT22;65701;45.588;5.186;2024-03-23T03:14:12;14.87;67.50
76759;DHT22;65701;45.588;5.186;2024-03-23T03:16:37;14.89;67.47
76759;DHT22;65701;45.588;5.186;2024-03-23T03:19:03;14.92;67.36
76759;DHT22;65701;45.588;5.186;2024-03-23T03:21:28;14.83;67.43
76759;DHT22;65701;45.588;5.186;2024-03-23T03:23:54;14.86;67.48
76759;DHT22;65701;45.588;5.186;2024-03-23T03:26:21;14.87;67.38
76759;DHT22;65701;45.588;5.186;2024-03-23T03:28:47;14.93;67.42
76759;DHT22;65701;45.588;5.186;2024-03-23T03:31:16;14.90;67.44
76759;DHT22;65701;45.588;5.186;2024-03-23T03:33:42;14.90;67.40
76759;DHT22;65701;45.588;5.186;2024-03-23T03:36:08;14.87;67.59
76759;DHT22;65701;45.588;5.186;2024-03-23T03:38:34;14.89;67.58
76759;DHT22;65701;45.588;5.186;2024-03-23T03:41:03;14.86;67.78
76759;DHT22;65701;45.588;5.186;2024-03-23T03:43:29;14.85;67.95
76759;DHT22;65701;45.588;5.186;2024-03-23T03:45:56;14.86;68.11
76759;DHT22;65701;45.588;5.186;2024-03-23T03:48:21;14.86;68.26
76759;DHT22;65701;45.588;5.186;2024-03-23T03:50:47;14.83;68.24
76759;DHT22;65701;45.588;5.186;2024-03-23T03:53:12;14.87;68.46
76759;DHT22;65701;45.588;5.186;2024-03-23T03:55:38;14.82;68.71
76759;DHT22;65701;45.588;5.186;2024-03-23T03:58:03;14.87;68.84
76759;DHT22;65701;45.588;5.186;2024-03-23T04:00:30;14.92;68.90
76759;DHT22;65701;45.588;5.186;2024-03-23T04:02:56;14.95;68.90
76759;DHT22;65701;45.588;5.186;2024-03-23T04:05:22;14.93;68.76
76759;DHT22;65701;45.588;5.186;2024-03-23T04:07:48;14.90;68.91
76759;DHT22;65701;45.588;5.186;2024-03-23T04:10:14;14.89;68.84
76759;DHT22;65701;45.588;5.186;2024-03-23T04:12:40;14.90;68.70
76759;DHT22;65701;45.588;5.186;2024-03-23T04:15:06;14.89;68.55
76759;DHT22;65701;45.588;5.186;2024-03-23T04:17:32;14.87;68.57
76759;DHT22;65701;45.588;5.186;2024-03-23T04:20:00;14.87;68.47
76759;DHT22;65701;45.588;5.186;2024-03-23T04:22:26;14.89;68.47
76759;DHT22;65701;45.588;5.186;2024-03-23T04:24:53;14.85;68.62
76759;DHT22;65701;45.588;5.186;2024-03-23T04:27:19;14.83;68.71
76759;DHT22;65701;45.588;5.186;2024-03-23T04:29:48;14.79;68.69
76759;DHT22;65701;45.588;5.186;2024-03-23T04:32:14;14.75;68.71
76759;DHT22;65701;45.588;5.186;2024-03-23T04:34:40;14.68;68.97
76759;DHT22;65701;45.588;5.186;2024-03-23T04:37:06;14.62;69.13
76759;DHT22;65701;45.588;5.186;2024-03-23T04:39:31;14.59;69.17
76759;DHT22;65701;45.588;5.186;2024-03-23T04:41:56;14.54;69.40
76759;DHT22;65701;45.588;5.186;2024-03-23T04:44:22;14.51;69.37
76759;DHT22;65701;45.588;5.186;2024-03-23T04:46:47;14.44;69.20
76759;DHT22;65701;45.588;5.186;2024-03-23T04:49:13;14.37;69.28
76759;DHT22;65701;45.588;5.186;2024-03-23T04:51:38;14.33;69.30
76759;DHT22;65701;45.588;5.186;2024-03-23T04:54:05;14.25;69.27
76759;DHT22;65701;45.588;5.186;2024-03-23T04:56:31;14.21;69.31
76759;DHT22;65701;45.588;5.186;2024-03-23T04:58:57;14.13;69.52
76759;DHT22;65701;45.588;5.186;2024-03-23T05:01:27;14.02;69.97
76759;DHT22;65701;45.588;5.186;2024-03-23T05:03:52;13.91;70.52
76759;DHT22;65701;45.588;5.186;2024-03-23T05:06:18;13.86;70.86
76759;DHT22;65701;45.588;5.186;2024-03-23T05:08:44;13.69;71.76
76759;DHT22;65701;45.588;5.186;2024-03-23T05:11:11;13.62;72.21
76759;DHT22;65701;45.588;5.186;2024-03-23T05:13:36;13.58;72.07
76759;DHT22;65701;45.588;5.186;2024-03-23T05:16:02;13.55;72.45
76759;DHT22;65701;45.588;5.186;2024-03-23T05:18:27;13.55;72.73
76759;DHT22;65701;45.588;5.186;2024-03-23T05:20:57;13.54;73.14
76759;DHT22;65701;45.588;5.186;2024-03-23T05:23:24;13.52;73.71
76759;DHT22;65701;45.588;5.186;2024-03-23T05:25:49;13.52;73.65
76759;DHT22;65701;45.588;5.186;2024-03-23T05:28:15;13.55;73.85
76759;DHT22;65701;45.588;5.186;2024-03-23T05:30:40;13.55;73.82
76759;DHT22;65701;45.588;5.186;2024-03-23T05:33:06;13.57;73.95
76759;DHT22;65701;45.588;5.186;2024-03-23T05:35:32;13.57;74.18
76759;DHT22;65701;45.588;5.186;2024-03-23T05:37:58;13.58;73.95
76759;DHT22;65701;45.588;5.186;2024-03-23T05:40:26;13.61;73.88
76759;DHT22;65701;45.588;5.186;2024-03-23T05:42:52;13.62;73.74
76759;DHT22;65701;45.588;5.186;2024-03-23T05:45:21;13.65;73.54
76759;DHT22;65701;45.588;5.186;2024-03-23T05:47:48;13.62;73.37
76759;DHT22;65701;45.588;5.186;2024-03-23T05:50:14;13.63;73.27
76759;DHT22;65701;45.588;5.186;2024-03-23T05:52:39;13.65;72.94
76759;DHT22;65701;45.588;5.186;2024-03-23T05:55:06;13.69;72.63
76759;DHT22;65701;45.588;5.186;2024-03-23T05:57:31;13.69;72.48
76759;DHT22;65701;45.588;5.186;2024-03-23T05:59:57;13.69;72.14
76759;DHT22;65701;45.588;5.186;2024-03-23T06:02:23;13.68;72.12
76759;DHT22;65701;45.588;5.186;2024-03-23T06:04:49;13.63;72.27
76759;DHT22;65701;45.588;5.186;2024-03-23T06:07:15;13.59;72.00
76759;DHT22;65701;45.588;5.186;2024-03-23T06:09:41;13.59;71.62
76759;DHT22;65701;45.588;5.186;2024-03-23T06:12:07;13.61;71.28
76759;DHT22;65701;45.588;5.186;2024-03-23T06:14:33;13.59;71.08
76759;DHT22;65701;45.588;5.186;2024-03-23T06:17:01;13.62;70.85
76759;DHT22;65701;45.588;5.186;2024-03-23T06:19:27;13.66;70.59
76759;DHT22;65701;45.588;5.186;2024-03-23T06:21:56;13.65;70.43
76759;DHT22;65701;45.588;5.186;2024-03-23T06:24:22;13.63;70.09
76759;DHT22;65701;45.588;5.186;2024-03-23T06:26:47;13.61;69.77
76759;DHT22;65701;45.588;5.186;2024-03-23T06:29:13;13.59;69.45
76759;DHT22;65701;45.588;5.186;2024-03-23T06:31:38;13.51;69.16
76759;DHT22;65701;45.588;5.186;2024-03-23T06:34:04;13.51;69.01
76759;DHT22;65701;45.588;5.186;2024-03-23T06:36:30;13.54;68.93
76759;DHT22;65701;45.588;5.186;2024-03-23T06:38:56;13.51;68.78
76759;DHT22;65701;45.588;5.186;2024-03-23T06:41:22;13.48;68.72
76759;DHT22;65701;45.588;5.186;2024-03-23T06:43:47;13.45;68.80
76759;DHT22;65701;45.588;5.186;2024-03-23T06:46:12;13.48;68.80
76759;DHT22;65701;45.588;5.186;2024-03-23T06:48:38;13.44;68.82
76759;DHT22;65701;45.588;5.186;2024-03-23T06:51:04;13.35;68.75
76759;DHT22;65701;45.588;5.186;2024-03-23T06:53:29;13.31;68.75
76759;DHT22;65701;45.588;5.186;2024-03-23T06:55:55;13.28;68.75
76759;DHT22;65701;45.588;5.186;2024-03-23T06:58:22;13.24;68.78
76759;DHT22;65701;45.588;5.186;2024-03-23T07:00:48;13.18;68.84
76759;DHT22;65701;45.588;5.186;2024-03-23T07:03:14;13.13;68.78
76759;DHT22;65701;45.588;5.186;2024-03-23T07:05:39;12.99;68.61
76759;DHT22;65701;45.588;5.186;2024-03-23T07:08:05;12.90;68.37
76759;DHT22;65701;45.588;5.186;2024-03-23T07:10:30;12.79;68.32
76759;DHT22;65701;45.588;5.186;2024-03-23T07:12:56;12.80;68.23
76759;DHT22;65701;45.588;5.186;2024-03-23T07:15:21;12.72;68.03
76759;DHT22;65701;45.588;5.186;2024-03-23T07:17:47;12.62;67.86
76759;DHT22;65701;45.588;5.186;2024-03-23T07:20:13;12.51;67.77
76759;DHT22;65701;45.588;5.186;2024-03-23T07:22:39;12.44;67.63
76759;DHT22;65701;45.588;5.186;2024-03-23T07:25:05;12.42;67.48
76759;DHT22;65701;45.588;5.186;2024-03-23T07:27:32;12.37;67.40
76759;DHT22;65701;45.588;5.186;2024-03-23T07:29:57;12.35;67.35
76759;DHT22;65701;45.588;5.186;2024-03-23T07:32:23;12.34;67.25
76759;DHT22;65701;45.588;5.186;2024-03-23T07:34:48;12.28;67.02
76759;DHT22;65701;45.588;5.186;2024-03-23T07:37:14;12.20;66.70
76759;DHT22;65701;45.588;5.186;2024-03-23T07:39:40;12.16;66.22
76759;DHT22;65701;45.588;5.186;2024-03-23T07:42:06;12.07;65.99
76759;DHT22;65701;45.588;5.186;2024-03-23T07:44:31;12.03;65.59
76759;DHT22;65701;45.588;5.186;2024-03-23T07:46:59;12.01;65.54
76759;DHT22;65701;45.588;5.186;2024-03-23T07:49:24;12.03;65.48
76759;DHT22;65701;45.588;5.186;2024-03-23T07:51:50;12.01;65.36
76759;DHT22;65701;45.588;5.186;2024-03-23T07:54:15;12.07;65.46
76759;DHT22;65701;45.588;5.186;2024-03-23T07:56:41;12.12;65.59
76759;DHT22;65701;45.588;5.186;2024-03-23T07:59:06;12.14;65.60
76759;DHT22;65701;45.588;5.186;2024-03-23T08:01:32;11.98;65.06
76759;DHT22;65701;45.588;5.186;2024-03-23T08:03:57;11.76;64.17
76759;DHT22;65701;45.588;5.186;2024-03-23T08:06:23;11.51;63.28
76759;DHT22;65701;45.588;5.186;2024-03-23T08:08:51;11.41;62.69
76759;DHT22;65701;45.588;5.186;2024-03-23T08:11:31;11.31;62.32
76759;DHT22;65701;45.588;5.186;2024-03-23T08:13:57;11.25;62.19
76759;DHT22;65701;45.588;5.186;2024-03-23T08:16:23;11.21;62.00
76759;DHT22;65701;45.588;5.186;2024-03-23T08:18:51;11.24;61.80
76759;DHT22;65701;45.588;5.186;2024-03-23T08:21:16;11.21;61.76
76759;DHT22;65701;45.588;5.186;2024-03-23T08:23:42;11.21;61.43
76759;DHT22;65701;45.588;5.186;2024-03-23T08:26:16;11.22;61.35
76759;DHT22;65701;45.588;5.186;2024-03-23T08:28:43;11.25;61.07
76759;DHT22;65701;45.588;5.186;2024-03-23T08:31:09;11.34;61.09
76759;DHT22;65701;45.588;5.186;2024-03-23T08:33:35;11.43;61.30
76759;DHT22;65701;45.588;5.186;2024-03-23T08:36:03;11.69;61.25
76759;DHT22;65701;45.588;5.186;2024-03-23T08:38:29;11.91;61.08
76759;DHT22;65701;45.588;5.186;2024-03-23T08:40:58;12.18;60.10
76759;DHT22;65701;45.588;5.186;2024-03-23T08:43:25;12.42;59.31
76759;DHT22;65701;45.588;5.186;2024-03-23T08:45:50;12.59;58.46
76759;DHT22;65701;45.588;5.186;2024-03-23T08:48:16;12.80;57.87
76759;DHT22;65701;45.588;5.186;2024-03-23T08:50:41;12.96;56.80
76759;DHT22;65701;45.588;5.186;2024-03-23T08:53:08;13.13;56.76
76759;DHT22;65701;45.588;5.186;2024-03-23T08:55:33;13.30;56.07
76759;DHT22;65701;45.588;5.186;2024-03-23T08:57:59;13.21;55.12
76759;DHT22;65701;45.588;5.186;2024-03-23T09:00:25;13.06;54.42
76759;DHT22;65701;45.588;5.186;2024-03-23T09:02:51;12.95;54.04
76759;DHT22;65701;45.588;5.186;2024-03-23T09:05:16;12.95;53.50
76759;DHT22;65701;45.588;5.186;2024-03-23T09:07:42;13.07;53.06
76759;DHT22;65701;45.588;5.186;2024-03-23T09:10:07;13.11;52.75
76759;DHT22;65701;45.588;5.186;2024-03-23T09:12:33;13.13;52.10
76759;DHT22;65701;45.588;5.186;2024-03-23T09:14:59;12.97;51.58
76759;DHT22;65701;45.588;5.186;2024-03-23T09:17:25;12.79;51.24
76759;DHT22;65701;45.588;5.186;2024-03-23T09:19:50;12.80;51.67
76759;DHT22;65701;45.588;5.186;2024-03-23T09:22:16;13.02;52.38
76759;DHT22;65701;45.588;5.186;2024-03-23T09:24:41;13.30;52.82
76759;DHT22;65701;45.588;5.186;2024-03-23T09:27:07;13.42;53.09
76759;DHT22;65701;45.588;5.186;2024-03-23T09:29:33;13.63;52.58
76759;DHT22;65701;45.588;5.186;2024-03-23T09:31:58;13.76;52.14
76759;DHT22;65701;45.588;5.186;2024-03-23T09:34:24;13.89;51.80
76759;DHT22;65701;45.588;5.186;2024-03-23T09:36:52;13.90;51.36
76759;DHT22;65701;45.588;5.186;2024-03-23T09:39:18;14.06;51.62
76759;DHT22;65701;45.588;5.186;2024-03-23T09:41:45;14.23;51.70
76759;DHT22;65701;45.588;5.186;2024-03-23T09:44:10;14.38;51.70
76759;DHT22;65701;45.588;5.186;2024-03-23T09:46:36;14.49;51.50
76759;DHT22;65701;45.588;5.186;2024-03-23T09:49:03;14.61;51.71
76759;DHT22;65701;45.588;5.186;2024-03-23T09:51:31;14.73;51.46
76759;DHT22;65701;45.588;5.186;2024-03-23T09:53:57;14.75;51.09
76759;DHT22;65701;45.588;5.186;2024-03-23T09:56:22;14.67;50.40
76759;DHT22;65701;45.588;5.186;2024-03-23T09:58:49;14.62;49.77
76759;DHT22;65701;45.588;5.186;2024-03-23T10:01:14;14.55;49.56
76759;DHT22;65701;45.588;5.186;2024-03-23T10:03:46;14.65;49.28
76759;DHT22;65701;45.588;5.186;2024-03-23T10:06:21;14.71;49.26
76759;DHT22;65701;45.588;5.186;2024-03-23T10:08:47;14.80;49.28
76759;DHT22;65701;45.588;5.186;2024-03-23T10:11:16;14.86;49.19
76759;DHT22;65701;45.588;5.186;2024-03-23T10:13:43;14.87;49.22
76759;DHT22;65701;45.588;5.186;2024-03-23T10:16:10;14.96;49.22
76759;DHT22;65701;45.588;5.186;2024-03-23T10:18:40;14.82;48.39
76759;DHT22;65701;45.588;5.186;2024-03-23T10:23:40;14.78;48.18
76759;DHT22;65701;45.588;5.186;2024-03-23T10:28:58;14.97;49.09
76759;DHT22;65701;45.588;5.186;2024-03-23T10:31:27;14.97;48.41
76759;DHT22;65701;45.588;5.186;2024-03-23T10:33:52;14.85;47.52
76759;DHT22;65701;45.588;5.186;2024-03-23T10:36:25;14.75;46.90
76759;DHT22;65701;45.588;5.186;2024-03-23T10:38:54;14.79;46.95
76759;DHT22;65701;45.588;5.186;2024-03-23T10:41:20;14.89;47.50
76759;DHT22;65701;45.588;5.186;2024-03-23T10:43:47;14.99;47.03
76759;DHT22;65701;45.588;5.186;2024-03-23T10:46:13;15.06;46.54
76759;DHT22;65701;45.588;5.186;2024-03-23T10:48:39;14.87;45.95
76759;DHT22;65701;45.588;5.186;2024-03-23T10:51:08;14.73;45.18
76759;DHT22;65701;45.588;5.186;2024-03-23T10:53:34;14.49;45.06
76759;DHT22;65701;45.588;5.186;2024-03-23T10:56:00;14.52;44.73
76759;DHT22;65701;45.588;5.186;2024-03-23T10:58:32;14.54;44.72
76759;DHT22;65701;45.588;5.186;2024-03-23T11:00:59;14.48;44.36
76759;DHT22;65701;45.588;5.186;2024-03-23T11:03:34;14.45;44.18
76759;DHT22;65701;45.588;5.186;2024-03-23T11:06:00;14.54;44.37
76759;DHT22;65701;45.588;5.186;2024-03-23T11:08:36;14.51;43.77
76759;DHT22;65701;45.588;5.186;2024-03-23T11:11:17;14.57;43.72
76759;DHT22;65701;45.588;5.186;2024-03-23T11:13:46;14.64;43.80
76759;DHT22;65701;45.588;5.186;2024-03-23T11:16:28;14.71;44.02
76759;DHT22;65701;45.588;5.186;2024-03-23T11:19:37;14.78;43.93
76759;DHT22;65701;45.588;5.186;2024-03-23T11:22:05;14.99;44.42
76759;DHT22;65701;45.588;5.186;2024-03-23T11:24:31;15.04;44.05
76759;DHT22;65701;45.588;5.186;2024-03-23T11:26:57;15.10;43.82
76759;DHT22;65701;45.588;5.186;2024-03-23T11:29:29;15.11;43.51
76759;DHT22;65701;45.588;5.186;2024-03-23T11:31:55;15.13;43.39
76759;DHT22;65701;45.588;5.186;2024-03-23T11:34:22;15.11;43.31
76759;DHT22;65701;45.588;5.186;2024-03-23T11:36:48;15.08;43.22
76759;DHT22;65701;45.588;5.186;2024-03-23T11:39:18;15.14;43.37
76759;DHT22;65701;45.588;5.186;2024-03-23T11:41:55;15.20;43.64
76759;DHT22;65701;45.588;5.186;2024-03-23T11:44:25;15.26;43.42
76759;DHT22;65701;45.588;5.186;2024-03-23T11:46:52;15.33;43.35
76759;DHT22;65701;45.588;5.186;2024-03-23T11:49:28;15.33;43.37
76759;DHT22;65701;45.588;5.186;2024-03-23T11:51:55;15.38;43.17
76759;DHT22;65701;45.588;5.186;2024-03-23T11:54:25;15.38;42.72
76759;DHT22;65701;45.588;5.186;2024-03-23T11:56:58;15.44;42.24
76759;DHT22;65701;45.588;5.186;2024-03-23T11:59:39;15.40;42.00
76759;DHT22;65701;45.588;5.186;2024-03-23T12:02:10;15.44;41.54
76759;DHT22;65701;45.588;5.186;2024-03-23T12:04:36;15.41;41.29
76759;DHT22;65701;45.588;5.186;2024-03-23T12:07:11;15.38;41.10
76759;DHT22;65701;45.588;5.186;2024-03-23T12:09:37;15.35;40.55
76759;DHT22;65701;45.588;5.186;2024-03-23T12:12:16;15.30;40.44
76759;DHT22;65701;45.588;5.186;2024-03-23T12:15:01;15.33;40.21
76759;DHT22;65701;45.588;5.186;2024-03-23T12:17:27;15.24;39.85
76759;DHT22;65701;45.588;5.186;2024-03-23T12:19:52;15.27;39.86
76759;DHT22;65701;45.588;5.186;2024-03-23T12:22:22;15.28;40.61
76759;DHT22;65701;45.588;5.186;2024-03-23T12:24:47;15.27;40.55
76759;DHT22;65701;45.588;5.186;2024-03-23T12:27:13;15.17;40.30
76759;DHT22;65701;45.588;5.186;2024-03-23T12:29:40;15.17;40.41
76759;DHT22;65701;45.588;5.186;2024-03-23T12:32:07;15.22;41.43
76759;DHT22;65701;45.588;5.186;2024-03-23T12:34:32;15.27;41.63
76759;DHT22;65701;45.588;5.186;2024-03-23T12:36:58;15.20;41.04
76759;DHT22;65701;45.588;5.186;2024-03-23T12:39:23;15.14;40.95
76759;DHT22;65701;45.588;5.186;2024-03-23T12:41:49;15.07;40.64
76759;DHT22;65701;45.588;5.186;2024-03-23T12:44:15;14.86;40.41
76759;DHT22;65701;45.588;5.186;2024-03-23T12:46:41;14.65;39.92
76759;DHT22;65701;45.588;5.186;2024-03-23T12:49:07;14.59;40.47
76759;DHT22;65701;45.588;5.186;2024-03-23T12:51:33;14.68;40.71
76759;DHT22;65701;45.588;5.186;2024-03-23T12:53:59;14.69;41.22
76759;DHT22;65701;45.588;5.186;2024-03-23T12:56:24;14.78;41.95
76759;DHT22;65701;45.588;5.186;2024-03-23T12:58:50;14.82;41.80
76759;DHT22;65701;45.588;5.186;2024-03-23T13:01:19;14.93;43.39
76759;DHT22;65701;45.588;5.186;2024-03-23T13:03:48;15.03;43.84
76759;DHT22;65701;45.588;5.186;2024-03-23T13:06:14;15.06;43.74
76759;DHT22;65701;45.588;5.186;2024-03-23T13:08:40;15.08;44.20
76759;DHT22;65701;45.588;5.186;2024-03-23T13:11:06;15.19;45.05
76759;DHT22;65701;45.588;5.186;2024-03-23T13:13:34;15.30;44.96
76759;DHT22;65701;45.588;5.186;2024-03-23T13:15:59;15.30;44.02
76759;DHT22;65701;45.588;5.186;2024-03-23T13:18:25;15.16;42.79
76759;DHT22;65701;45.588;5.186;2024-03-23T13:20:51;15.08;42.77
76759;DHT22;65701;45.588;5.186;2024-03-23T13:23:17;15.10;42.75
76759;DHT22;65701;45.588;5.186;2024-03-23T13:25:49;15.07;42.52
76759;DHT22;65701;45.588;5.186;2024-03-23T13:28:15;14.97;42.65
76759;DHT22;65701;45.588;5.186;2024-03-23T13:30:56;14.92;42.29
76759;DHT22;65701;45.588;5.186;2024-03-23T13:33:22;14.96;42.68
76759;DHT22;65701;45.588;5.186;2024-03-23T13:38:16;14.80;42.06
76759;DHT22;65701;45.588;5.186;2024-03-23T13:40:51;14.78;42.36
76759;DHT22;65701;45.588;5.186;2024-03-23T13:43:17;14.72;42.52
76759;DHT22;65701;45.588;5.186;2024-03-23T13:45:42;14.69;42.15
76759;DHT22;65701;45.588;5.186;2024-03-23T13:48:08;14.52;42.07
76759;DHT22;65701;45.588;5.186;2024-03-23T13:50:33;14.38;41.34
76759;DHT22;65701;45.588;5.186;2024-03-23T13:52:59;14.34;41.32
76759;DHT22;65701;45.588;5.186;2024-03-23T13:55:24;14.31;41.57
76759;DHT22;65701;45.588;5.186;2024-03-23T13:57:50;14.30;42.04
76759;DHT22;65701;45.588;5.186;2024-03-23T14:00:16;14.28;42.68
76759;DHT22;65701;45.588;5.186;2024-03-23T14:02:43;14.25;42.14
76759;DHT22;65701;45.588;5.186;2024-03-23T14:05:09;14.21;41.93
76759;DHT22;65701;45.588;5.186;2024-03-23T14:07:34;14.23;42.15
76759;DHT22;65701;45.588;5.186;2024-03-23T14:10:03;14.17;42.07
76759;DHT22;65701;45.588;5.186;2024-03-23T14:12:29;14.18;42.19
76759;DHT22;65701;45.588;5.186;2024-03-23T14:14:54;14.13;42.23
76759;DHT22;65701;45.588;5.186;2024-03-23T14:17:20;14.17;42.08
76759;DHT22;65701;45.588;5.186;2024-03-23T14:19:45;14.12;41.96
76759;DHT22;65701;45.588;5.186;2024-03-23T14:22:11;14.04;41.82
76759;DHT22;65701;45.588;5.186;2024-03-23T14:24:36;13.91;41.99
76759;DHT22;65701;45.588;5.186;2024-03-23T14:27:02;13.85;41.91
76759;DHT22;65701;45.588;5.186;2024-03-23T14:29:30;13.72;42.12
76759;DHT22;65701;45.588;5.186;2024-03-23T14:31:56;13.65;42.19
76759;DHT22;65701;45.588;5.186;2024-03-23T14:34:22;13.65;42.44
76759;DHT22;65701;45.588;5.186;2024-03-23T14:36:50;13.62;42.59
76759;DHT22;65701;45.588;5.186;2024-03-23T14:39:15;13.69;42.72
76759;DHT22;65701;45.588;5.186;2024-03-23T14:41:41;13.68;42.95
76759;DHT22;65701;45.588;5.186;2024-03-23T14:44:06;13.73;42.68
76759;DHT22;65701;45.588;5.186;2024-03-23T14:46:31;13.75;42.55
76759;DHT22;65701;45.588;5.186;2024-03-23T14:48:57;13.82;42.70
76759;DHT22;65701;45.588;5.186;2024-03-23T14:51:23;13.87;43.31
76759;DHT22;65701;45.588;5.186;2024-03-23T14:53:48;13.90;43.26
76759;DHT22;65701;45.588;5.186;2024-03-23T14:56:14;13.95;44.15
76759;DHT22;65701;45.588;5.186;2024-03-23T14:58:41;13.96;44.14
76759;DHT22;65701;45.588;5.186;2024-03-23T15:01:07;14.02;44.24
76759;DHT22;65701;45.588;5.186;2024-03-23T15:03:37;14.02;44.11
76759;DHT22;65701;45.588;5.186;2024-03-23T15:06:04;13.96;43.82
76759;DHT22;65701;45.588;5.186;2024-03-23T15:08:30;13.93;43.63
76759;DHT22;65701;45.588;5.186;2024-03-23T15:10:59;13.89;43.84
76759;DHT22;65701;45.588;5.186;2024-03-23T15:13:24;13.86;43.93
76759;DHT22;65701;45.588;5.186;2024-03-23T15:15:50;13.78;43.66
76759;DHT22;65701;45.588;5.186;2024-03-23T15:18:17;13.79;43.58
76759;DHT22;65701;45.588;5.186;2024-03-23T15:21:01;13.76;43.82
76759;DHT22;65701;45.588;5.186;2024-03-23T15:23:28;13.75;43.73
76759;DHT22;65701;45.588;5.186;2024-03-23T15:25:57;13.61;43.34
76759;DHT22;65701;45.588;5.186;2024-03-23T15:28:23;13.54;43.27
76759;DHT22;65701;45.588;5.186;2024-03-23T15:30:50;13.51;43.46
76759;DHT22;65701;45.588;5.186;2024-03-23T15:33:16;13.55;43.78
76759;DHT22;65701;45.588;5.186;2024-03-23T15:35:41;13.61;43.90
76759;DHT22;65701;45.588;5.186;2024-03-23T15:38:07;13.62;43.90
76759;DHT22;65701;45.588;5.186;2024-03-23T15:40:33;13.66;44.14
76759;DHT22;65701;45.588;5.186;2024-03-23T15:42:58;13.70;44.27
76759;DHT22;65701;45.588;5.186;2024-03-23T15:45:23;13.72;43.99
76759;DHT22;65701;45.588;5.186;2024-03-23T15:47:49;13.78;43.84
76759;DHT22;65701;45.588;5.186;2024-03-23T15:53:22;13.80;44.16
76759;DHT22;65701;45.588;5.186;2024-03-23T15:58:24;13.79;44.37
76759;DHT22;65701;45.588;5.186;2024-03-23T16:01:01;13.72;43.97
76759;DHT22;65701;45.588;5.186;2024-03-23T16:03:27;13.72;43.74
76759;DHT22;65701;45.588;5.186;2024-03-23T16:05:53;13.73;43.85
76759;DHT22;65701;45.588;5.186;2024-03-23T16:08:20;13.72;43.98
76759;DHT22;65701;45.588;5.186;2024-03-23T16:10:45;13.70;44.19
76759;DHT22;65701;45.588;5.186;2024-03-23T16:13:11;13.70;44.29
76759;DHT22;65701;45.588;5.186;2024-03-23T16:15:36;13.70;44.26
76759;DHT22;65701;45.588;5.186;2024-03-23T16:18:02;13.69;44.16
76759;DHT22;65701;45.588;5.186;2024-03-23T16:20:27;13.66;44.14
76759;DHT22;65701;45.588;5.186;2024-03-23T16:22:53;13.66;44.42
76759;DHT22;65701;45.588;5.186;2024-03-23T16:25:18;13.65;44.58
76759;DHT22;65701;45.588;5.186;2024-03-23T16:27:44;13.63;44.70
76759;DHT22;65701;45.588;5.186;2024-03-23T16:30:10;13.65;44.87
76759;DHT22;65701;45.588;5.186;2024-03-23T16:32:36;13.68;44.78
76759;DHT22;65701;45.588;5.186;2024-03-23T16:35:03;13.59;44.39